createdAt,value
2023-01-13T00:00:21.856Z,100564.00
2023-01-13T00:02:49.237Z,100566.06
2023-01-13T00:05:16.624Z,100581.03
2023-01-13T00:07:44.096Z,100606.25
2023-01-13T00:10:11.776Z,100605.34
2023-01-13T00:12:40.656Z,100593.97
2023-01-13T00:15:09.246Z,100596.16
2023-01-13T00:17:36.743Z,100583.50
2023-01-13T00:20:04.604Z,100580.75
2023-01-13T00:22:35.896Z,100569.75
2023-01-13T00:25:04.513Z,100575.25
2023-01-13T00:27:31.991Z,100577.25
2023-01-13T00:29:59.539Z,100568.13
2023-01-13T00:32:27.449Z,100569.59
2023-01-13T00:34:55.045Z,100574.63
2023-01-13T00:37:23.476Z,100565.72
2023-01-13T00:39:52.129Z,100570.72
2023-01-13T00:42:38.380Z,100573.47
2023-01-13T00:45:06.245Z,100569.75
2023-01-13T00:47:33.561Z,100556.13
2023-01-13T00:50:00.974Z,100560.19
2023-01-13T00:52:28.310Z,100561.47
2023-01-13T00:54:55.807Z,100546.06
2023-01-13T00:57:23.130Z,100546.25
2023-01-13T00:59:50.410Z,100557.63
2023-01-13T01:02:17.760Z,100558.72
2023-01-13T01:04:45.145Z,100571.88
2023-01-13T01:07:12.380Z,100574.81
2023-01-13T01:09:39.865Z,100572.41
2023-01-13T01:12:07.286Z,100566.22
2023-01-13T01:14:34.572Z,100564.91
2023-01-13T01:17:01.954Z,100562.47
2023-01-13T01:19:29.335Z,100562.00
2023-01-13T01:21:57.032Z,100554.72
2023-01-13T01:24:24.306Z,100553.34
2023-01-13T01:26:51.824Z,100552.84
2023-01-13T01:29:19.145Z,100555.56
2023-01-13T01:31:46.509Z,100564.38
2023-01-13T01:34:13.932Z,100556.94
2023-01-13T01:36:41.226Z,100550.13
2023-01-13T01:39:09.762Z,100551.13
2023-01-13T01:41:37.710Z,100554.38
2023-01-13T01:44:42.046Z,100548.38
2023-01-13T01:47:11.668Z,100547.22
2023-01-13T01:49:39.658Z,100543.34
2023-01-13T01:52:12.874Z,100540.25
2023-01-13T01:54:45.563Z,100546.09
2023-01-13T01:57:17.743Z,100556.66
2023-01-13T01:59:45.298Z,100550.63
2023-01-13T02:02:12.792Z,100551.94
2023-01-13T02:04:42.744Z,100554.69
2023-01-13T02:07:10.157Z,100567.03
2023-01-13T02:09:37.522Z,100563.47
2023-01-13T02:12:23.392Z,100571.22
2023-01-13T02:14:50.646Z,100573.38
2023-01-13T02:17:20.939Z,100569.44
2023-01-13T02:20:19.617Z,100569.16
2023-01-13T02:23:43.663Z,100574.47
2023-01-13T02:26:21.466Z,100575.00
2023-01-13T02:29:32.634Z,100566.69
2023-01-13T02:32:06.644Z,100575.16
2023-01-13T02:34:40.765Z,100581.91
2023-01-13T02:37:21.198Z,100572.97
2023-01-13T02:40:01.012Z,100580.63
2023-01-13T02:42:51.962Z,100584.34
2023-01-13T02:45:23.816Z,100577.56
2023-01-13T02:47:55.820Z,100590.81
2023-01-13T02:50:27.810Z,100583.81
2023-01-13T02:52:58.843Z,100581.91
2023-01-13T02:55:32.945Z,100593.25
2023-01-13T02:58:01.421Z,100604.88
2023-01-13T03:00:29.418Z,100602.03
2023-01-13T03:02:57.168Z,100603.38
2023-01-13T03:05:25.254Z,100600.28
2023-01-13T03:08:04.699Z,100608.84
2023-01-13T03:10:36.439Z,100618.41
2023-01-13T03:13:15.130Z,100610.44
2023-01-13T03:15:42.755Z,100614.50
2023-01-13T03:18:40.897Z,100606.56
2023-01-13T03:21:26.177Z,100619.47
2023-01-13T03:23:56.429Z,100606.75
2023-01-13T03:26:33.607Z,100606.91
2023-01-13T03:29:09.445Z,100615.56
2023-01-13T03:31:41.125Z,100615.00
2023-01-13T03:34:13.956Z,100616.81
2023-01-13T03:36:41.940Z,100625.72
2023-01-13T03:39:14.752Z,100629.88
2023-01-13T03:41:46.086Z,100627.34
2023-01-13T03:44:23.920Z,100629.28
2023-01-13T03:47:07.298Z,100625.69
2023-01-13T03:49:54.695Z,100623.44
2023-01-13T03:52:38.060Z,100625.66
2023-01-13T03:55:09.961Z,100627.75
2023-01-13T03:57:46.726Z,100611.16
2023-01-13T04:00:14.700Z,100613.91
2023-01-13T04:02:52.833Z,100611.94
2023-01-13T04:05:20.523Z,100622.47
2023-01-13T04:08:07.108Z,100625.88
2023-01-13T04:10:45.641Z,100623.44
2023-01-13T04:13:14.895Z,100627.78
2023-01-13T04:15:46.237Z,100633.66
2023-01-13T04:18:17.757Z,100639.94
2023-01-13T04:20:46.930Z,100647.19
2023-01-13T04:23:15.086Z,100648.56
2023-01-13T04:25:43.290Z,100650.81
2023-01-13T04:28:11.920Z,100641.84
2023-01-13T04:30:39.846Z,100659.59
2023-01-13T04:33:07.223Z,100658.75
2023-01-13T04:35:35.695Z,100663.94
2023-01-13T04:38:05.231Z,100670.97
2023-01-13T04:40:32.989Z,100675.69
2023-01-13T04:43:00.247Z,100672.19
2023-01-13T04:45:27.539Z,100676.19
2023-01-13T04:47:54.847Z,100678.31
2023-01-13T04:50:22.858Z,100673.00
2023-01-13T04:52:50.747Z,100680.31
2023-01-13T04:55:18.990Z,100690.34
2023-01-13T04:57:46.471Z,100689.41
2023-01-13T05:00:16.041Z,100694.06
2023-01-13T05:02:43.393Z,100689.06
2023-01-13T05:05:11.039Z,100691.31
2023-01-13T05:07:38.655Z,100695.72
2023-01-13T05:10:06.294Z,100697.13
2023-01-13T05:12:52.237Z,100697.25
2023-01-13T05:15:38.226Z,100703.34
2023-01-13T05:18:05.663Z,100707.50
2023-01-13T05:20:32.935Z,100710.69
2023-01-13T05:23:18.663Z,100701.84
2023-01-13T05:25:47.546Z,100708.44
2023-01-13T05:28:14.972Z,100714.19
2023-01-13T05:30:44.555Z,100723.59
2023-01-13T05:33:14.021Z,100736.53
2023-01-13T05:35:42.669Z,100740.63
2023-01-13T05:38:10.816Z,100736.84
2023-01-13T05:40:59.052Z,100734.69
2023-01-13T05:43:27.564Z,100736.84
2023-01-13T05:46:03.713Z,100742.81
2023-01-13T05:48:36.372Z,100737.66
2023-01-13T05:51:05.564Z,100748.00
2023-01-13T05:53:33.087Z,100745.06
2023-01-13T05:56:00.711Z,100759.09
2023-01-13T05:58:28.279Z,100768.00
2023-01-13T06:01:04.272Z,100765.50
2023-01-13T06:03:32.013Z,100765.91
2023-01-13T06:05:59.497Z,100762.28
2023-01-13T06:08:27.016Z,100770.72
2023-01-13T06:10:54.237Z,100770.56
2023-01-13T06:13:21.688Z,100761.09
2023-01-13T06:15:49.070Z,100769.91
2023-01-13T06:18:16.618Z,100783.69
2023-01-13T06:20:43.930Z,100788.91
2023-01-13T06:23:11.965Z,100800.34
2023-01-13T06:26:03.400Z,100795.81
2023-01-13T06:28:30.818Z,100803.50
2023-01-13T06:31:01.037Z,100806.72
2023-01-13T06:33:29.698Z,100817.66
2023-01-13T06:36:00.599Z,100819.03
2023-01-13T06:38:29.468Z,100818.88
2023-01-13T06:40:56.795Z,100831.78
2023-01-13T06:43:24.109Z,100834.03
2023-01-13T06:45:53.162Z,100835.88
2023-01-13T06:48:27.819Z,100827.91
2023-01-13T06:50:55.088Z,100819.25
2023-01-13T06:53:22.477Z,100825.28
2023-01-13T06:55:49.863Z,100831.78
2023-01-13T06:58:17.458Z,100838.72
2023-01-13T07:00:45.087Z,100837.78
2023-01-13T07:03:14.347Z,100839.06
2023-01-13T07:05:43.235Z,100846.66
2023-01-13T07:08:11.018Z,100847.81
2023-01-13T07:10:38.905Z,100854.75
2023-01-13T07:13:25.216Z,100853.34
2023-01-13T07:15:54.161Z,100856.41
2023-01-13T07:18:21.538Z,100877.50
2023-01-13T07:20:56.631Z,100879.38
2023-01-13T07:23:25.386Z,100879.88
2023-01-13T07:25:55.312Z,100879.81
2023-01-13T07:28:22.981Z,100883.81
2023-01-13T07:30:50.384Z,100879.72
2023-01-13T07:33:18.653Z,100880.63
2023-01-13T07:35:46.937Z,100886.41
2023-01-13T07:38:14.855Z,100888.88
2023-01-13T07:40:42.138Z,100893.06
2023-01-13T07:43:31.048Z,100897.31
2023-01-13T07:45:59.448Z,100894.91
2023-01-13T07:48:27.371Z,100899.63
2023-01-13T07:50:55.176Z,100897.84
2023-01-13T07:53:25.167Z,100894.53
2023-01-13T07:55:56.979Z,100906.47
2023-01-13T07:58:25.668Z,100918.28
2023-01-13T08:00:53.623Z,100922.06
2023-01-13T08:03:21.525Z,100935.78
2023-01-13T08:05:49.238Z,100933.78
2023-01-13T08:08:17.070Z,100933.41
2023-01-13T08:10:45.014Z,100938.22
2023-01-13T08:13:18.371Z,100944.56
2023-01-13T08:15:48.332Z,100940.38
2023-01-13T08:18:17.757Z,100955.38
2023-01-13T08:20:45.205Z,100953.44
2023-01-13T08:23:12.739Z,100950.06
2023-01-13T08:25:40.261Z,100955.38
2023-01-13T08:28:15.065Z,100964.53
2023-01-13T08:30:42.849Z,100973.06
2023-01-13T08:33:12.535Z,100980.19
2023-01-13T08:35:40.767Z,100977.22
2023-01-13T08:38:08.989Z,100971.81
2023-01-13T08:40:36.665Z,100964.19
2023-01-13T08:43:03.921Z,100967.56
2023-01-13T08:45:31.153Z,100972.47
2023-01-13T08:47:58.407Z,100977.66
2023-01-13T08:50:25.754Z,100978.50
2023-01-13T08:52:53.192Z,100966.50
2023-01-13T08:55:20.550Z,100963.25
2023-01-13T08:57:47.881Z,100958.09
2023-01-13T09:00:17.253Z,100970.13
2023-01-13T09:02:44.832Z,100975.69
2023-01-13T09:05:12.679Z,100974.16
2023-01-13T09:07:39.959Z,100970.78
2023-01-13T09:10:08.388Z,100979.91
2023-01-13T09:12:54.869Z,100981.53
2023-01-13T09:15:22.324Z,100981.84
2023-01-13T09:17:49.605Z,100994.69
2023-01-13T09:20:17.055Z,100989.84
2023-01-13T09:22:44.366Z,100994.38
2023-01-13T09:25:12.760Z,101000.72
2023-01-13T09:27:40.045Z,101009.06
2023-01-13T09:30:08.058Z,101005.66
2023-01-13T09:32:35.524Z,101009.59
2023-01-13T09:35:03.827Z,100996.81
2023-01-13T09:37:40.485Z,100993.41
2023-01-13T09:40:18.561Z,101013.91
2023-01-13T09:43:11.604Z,101021.69
2023-01-13T09:45:45.302Z,101025.91
2023-01-13T09:48:32.725Z,101017.72
2023-01-13T09:51:09.620Z,101029.84
2023-01-13T09:53:39.970Z,101034.59
2023-01-13T09:56:10.298Z,101048.44
2023-01-13T09:58:37.953Z,101046.84
2023-01-13T10:01:11.188Z,101046.44
2023-01-13T10:03:38.801Z,101054.50
2023-01-13T10:06:16.733Z,101053.50
2023-01-13T10:08:45.649Z,101052.16
2023-01-13T10:11:38.523Z,101050.16
2023-01-13T10:14:20.755Z,101056.28
2023-01-13T10:17:08.771Z,101056.00
2023-01-13T10:19:44.944Z,101055.13
2023-01-13T10:22:35.428Z,101057.38
2023-01-13T10:25:21.123Z,101062.31
2023-01-13T10:27:50.256Z,101064.84
2023-01-13T10:30:17.753Z,101070.91
2023-01-13T10:33:01.314Z,101072.28
2023-01-13T10:35:55.604Z,101060.50
2023-01-13T10:38:29.020Z,101060.66
2023-01-13T10:41:01.837Z,101063.25
2023-01-13T10:43:30.574Z,101063.69
2023-01-13T10:46:06.857Z,101079.75
2023-01-13T10:48:41.373Z,101085.34
2023-01-13T10:51:14.534Z,101082.41
2023-01-13T10:53:53.810Z,101086.78
2023-01-13T10:56:22.449Z,101091.56
2023-01-13T10:58:49.798Z,101104.03
2023-01-13T11:01:26.337Z,101114.41
2023-01-13T11:03:54.982Z,101129.41
2023-01-13T11:06:27.317Z,101113.19
2023-01-13T11:08:58.167Z,101125.84
2023-01-13T11:11:39.191Z,101140.38
2023-01-13T11:14:33.893Z,101124.50
2023-01-13T11:17:22.768Z,101128.41
2023-01-13T11:20:14.907Z,101129.28
2023-01-13T11:22:55.602Z,101132.94
2023-01-13T11:25:42.134Z,101125.53
2023-01-13T11:28:16.731Z,101131.47
2023-01-13T11:30:52.707Z,101131.31
2023-01-13T11:33:30.573Z,101126.81
2023-01-13T11:36:21.215Z,101139.44
2023-01-13T11:38:54.827Z,101134.44
2023-01-13T11:41:40.478Z,101138.81
2023-01-13T11:44:22.610Z,101142.91
2023-01-13T11:46:53.656Z,101158.09
2023-01-13T11:49:27.546Z,101160.09
2023-01-13T11:51:59.050Z,101159.03
2023-01-13T11:54:50.596Z,101153.25
2023-01-13T11:57:33.045Z,101157.66
2023-01-13T12:00:18.626Z,101162.16
2023-01-13T12:03:01.324Z,101168.00
2023-01-13T12:05:37.274Z,101166.13
2023-01-13T12:08:43.135Z,101155.38
2023-01-13T12:11:24.835Z,101161.38
2023-01-13T12:14:13.477Z,101142.66
2023-01-13T12:16:48.999Z,101150.44
2023-01-13T12:19:25.587Z,101177.00
2023-01-13T12:22:09.316Z,101143.66
2023-01-13T12:24:44.027Z,101166.56
2023-01-13T12:27:29.526Z,101144.91
2023-01-13T12:29:59.876Z,101147.47
2023-01-13T12:32:38.245Z,101154.84
2023-01-13T12:35:24.347Z,101150.00
2023-01-13T12:37:59.642Z,101165.91
2023-01-13T12:40:47.051Z,101174.28
2023-01-13T12:43:40.824Z,101182.44
2023-01-13T12:46:23.295Z,101176.22
2023-01-13T12:48:59.943Z,101170.59
2023-01-13T12:51:29.203Z,101175.91
2023-01-13T12:53:56.632Z,101183.78
2023-01-13T12:56:40.076Z,101187.84
2023-01-13T12:59:19.407Z,101178.38
2023-01-13T13:01:48.677Z,101176.22
2023-01-13T13:04:42.647Z,101182.34
2023-01-13T13:07:16.599Z,101178.09
2023-01-13T13:09:47.764Z,101173.34
2023-01-13T13:12:49.037Z,101177.97
2023-01-13T13:15:20.534Z,101164.13
2023-01-13T13:18:00.258Z,101165.69
2023-01-13T13:20:56.385Z,101173.22
2023-01-13T13:23:48.786Z,101181.38
2023-01-13T13:26:22.209Z,101177.69
2023-01-13T13:29:11.221Z,101185.38
2023-01-13T13:31:47.218Z,101175.25
2023-01-13T13:34:39.401Z,101185.06
2023-01-13T13:38:00.238Z,101187.47
2023-01-13T13:40:51.332Z,101200.38
2023-01-13T13:43:38.722Z,101199.09
2023-01-13T13:46:47.106Z,101202.47
2023-01-13T13:49:16.825Z,101207.50
2023-01-13T13:51:52.919Z,101209.84
2023-01-13T13:54:22.124Z,101211.59
2023-01-13T13:56:50.441Z,101213.53
2023-01-13T13:59:25.632Z,101222.63
2023-01-13T14:02:03.760Z,101211.28
2023-01-13T14:04:33.695Z,101218.19
2023-01-13T14:07:18.484Z,101219.41
2023-01-13T14:09:47.738Z,101227.09
2023-01-13T14:12:23.361Z,101229.19
2023-01-13T14:14:51.416Z,101229.47
2023-01-13T14:17:27.017Z,101237.81
2023-01-13T14:20:17.367Z,101238.72
2023-01-13T14:22:49.392Z,101255.41
2023-01-13T14:25:39.826Z,101253.78
2023-01-13T14:28:13.228Z,101262.97
2023-01-13T14:30:42.019Z,101270.53
2023-01-13T14:33:17.508Z,101261.19
2023-01-13T14:36:26.802Z,101267.16
2023-01-13T14:39:03.029Z,101274.97
2023-01-13T14:41:53.390Z,101281.81
2023-01-13T14:44:20.580Z,101275.47
2023-01-13T14:46:48.519Z,101275.97
2023-01-13T14:49:22.452Z,101275.34
2023-01-13T14:51:50.127Z,101285.50
2023-01-13T14:54:49.758Z,101301.09
2023-01-13T14:57:27.492Z,101311.44
2023-01-13T15:00:16.984Z,101293.59
2023-01-13T15:02:48.600Z,101299.59
2023-01-13T15:05:19.526Z,101301.03
2023-01-13T15:07:56.461Z,101305.94
2023-01-13T15:10:26.755Z,101309.16
2023-01-13T15:12:56.377Z,101308.31
2023-01-13T15:15:28.008Z,101330.38
2023-01-13T15:17:55.303Z,101324.19
2023-01-13T15:20:24.376Z,101328.91
2023-01-13T15:22:52.326Z,101347.72
2023-01-13T15:25:20.328Z,101352.88
2023-01-13T15:27:50.674Z,101353.84
2023-01-13T15:30:26.320Z,101350.19
2023-01-13T15:32:55.185Z,101350.25
2023-01-13T15:35:23.943Z,101365.06
2023-01-13T15:37:51.545Z,101372.84
2023-01-13T15:40:26.597Z,101367.88
2023-01-13T15:43:12.450Z,101375.84
2023-01-13T15:45:59.308Z,101377.00
2023-01-13T15:48:28.125Z,101384.63
2023-01-13T15:50:55.477Z,101380.47
2023-01-13T15:53:23.025Z,101377.97
2023-01-13T15:55:52.618Z,101377.88
2023-01-13T15:58:21.517Z,101372.09
2023-01-13T16:00:48.811Z,101363.94
2023-01-13T16:03:16.783Z,101370.41
2023-01-13T16:05:44.918Z,101376.59
2023-01-13T16:08:20.465Z,101388.25
2023-01-13T16:10:48.480Z,101390.28
2023-01-13T16:13:16.892Z,101391.41
2023-01-13T16:15:53.312Z,101393.78
2023-01-13T16:18:24.349Z,101393.41
2023-01-13T16:20:53.453Z,101395.50
2023-01-13T16:23:22.076Z,101393.63
2023-01-13T16:25:49.916Z,101397.59
2023-01-13T16:28:26.139Z,101400.41
2023-01-13T16:30:53.898Z,101417.50
2023-01-13T16:33:21.122Z,101413.78
2023-01-13T16:36:10.674Z,101423.00
2023-01-13T16:38:36.985Z,101409.50
2023-01-13T16:41:04.358Z,101429.34
2023-01-13T16:43:32.263Z,101437.22
2023-01-13T16:45:59.723Z,101446.31
2023-01-13T16:48:27.103Z,101443.25
2023-01-13T16:50:54.574Z,101438.81
2023-01-13T16:53:21.922Z,101456.25
2023-01-13T16:55:49.188Z,101455.94
2023-01-13T16:58:18.444Z,101454.91
2023-01-13T17:00:49.071Z,101458.06
2023-01-13T17:03:16.677Z,101473.78
2023-01-13T17:05:47.535Z,101484.38
2023-01-13T17:08:17.781Z,101482.00
2023-01-13T17:10:45.617Z,101476.13
2023-01-13T17:13:16.789Z,101479.88
2023-01-13T17:15:45.748Z,101483.34
2023-01-13T17:18:13.743Z,101486.91
2023-01-13T17:20:41.264Z,101491.59
2023-01-13T17:23:08.595Z,101493.13
2023-01-13T17:25:35.916Z,101479.19
2023-01-13T17:28:03.393Z,101481.88
2023-01-13T17:30:30.671Z,101483.56
2023-01-13T17:32:58.082Z,101486.72
2023-01-13T17:35:25.521Z,101488.31
2023-01-13T17:37:53.793Z,101497.56
2023-01-13T17:40:21.268Z,101499.50
2023-01-13T17:42:48.584Z,101506.03
2023-01-13T17:45:16.329Z,101500.28
2023-01-13T17:47:43.648Z,101508.78
2023-01-13T17:50:11.138Z,101511.41
2023-01-13T17:52:38.565Z,101508.72
2023-01-13T17:55:06.169Z,101513.75
2023-01-13T17:57:34.977Z,101530.34
2023-01-13T18:00:03.172Z,101533.50
2023-01-13T18:02:39.527Z,101543.81
2023-01-13T18:05:07.058Z,101539.88
2023-01-13T18:07:34.260Z,101538.13
2023-01-13T18:10:01.517Z,101544.53
2023-01-13T18:12:28.945Z,101533.00
2023-01-13T18:14:56.487Z,101538.69
2023-01-13T18:17:23.861Z,101532.28
2023-01-13T18:20:10.011Z,101542.34
2023-01-13T18:23:06.673Z,101546.66
2023-01-13T18:25:53.064Z,101540.78
2023-01-13T18:28:20.470Z,101546.03
2023-01-13T18:30:48.200Z,101540.44
2023-01-13T18:33:15.536Z,101538.34
2023-01-13T18:35:42.900Z,101539.00
2023-01-13T18:38:14.616Z,101532.66
2023-01-13T18:40:44.178Z,101536.06
2023-01-13T18:43:11.419Z,101537.69
2023-01-13T18:45:38.776Z,101538.53
2023-01-13T18:48:06.713Z,101532.00
2023-01-13T18:50:37.078Z,101525.75
2023-01-13T18:53:04.491Z,101518.78
2023-01-13T18:55:31.814Z,101521.75
2023-01-13T18:57:59.325Z,101526.19
2023-01-13T19:00:27.447Z,101526.25
2023-01-13T19:05:35.447Z,101528.03
2023-01-13T19:08:03.513Z,101519.47
2023-01-13T19:10:32.569Z,101526.69
2023-01-13T19:13:01.454Z,101523.91
2023-01-13T19:15:28.871Z,101517.97
2023-01-13T19:17:56.492Z,101527.63
2023-01-13T19:20:24.207Z,101533.00
2023-01-13T19:22:54.296Z,101529.59
2023-01-13T19:25:21.539Z,101532.41
2023-01-13T19:27:48.769Z,101533.38
2023-01-13T19:30:17.335Z,101529.50
2023-01-13T19:32:44.683Z,101534.59
2023-01-13T19:35:13.193Z,101537.22
2023-01-13T19:37:40.881Z,101544.22
2023-01-13T19:40:09.910Z,101550.25
2023-01-13T19:42:55.811Z,101553.06
2023-01-13T19:45:34.987Z,101558.38
2023-01-13T19:48:04.698Z,101557.88
2023-01-13T19:50:35.724Z,101566.31
2023-01-13T19:53:03.103Z,101560.44
2023-01-13T19:55:31.857Z,101563.03
2023-01-13T19:57:59.189Z,101556.94
2023-01-13T20:00:26.712Z,101559.41
2023-01-13T20:02:56.742Z,101557.78
2023-01-13T20:05:26.082Z,101551.75
2023-01-13T20:07:54.113Z,101545.47
2023-01-13T20:10:22.551Z,101547.09
2023-01-13T20:12:50.040Z,101540.78
2023-01-13T20:15:17.349Z,101553.94
2023-01-13T20:17:46.728Z,101548.59
2023-01-13T20:20:15.807Z,101557.47
2023-01-13T20:22:43.246Z,101549.72
2023-01-13T20:25:11.469Z,101551.69
2023-01-13T20:27:38.891Z,101561.78
2023-01-13T20:30:09.791Z,101561.63
2023-01-13T20:32:37.287Z,101561.91
2023-01-13T20:35:04.971Z,101558.63
2023-01-13T20:37:32.336Z,101560.06
2023-01-13T20:40:01.843Z,101564.16
2023-01-13T20:42:29.276Z,101569.06
2023-01-13T20:44:57.115Z,101560.06
2023-01-13T20:47:25.404Z,101555.03
2023-01-13T20:49:53.526Z,101557.31
2023-01-13T20:52:21.057Z,101563.66
2023-01-13T20:54:48.530Z,101563.59
2023-01-13T20:57:15.952Z,101560.59
2023-01-13T20:59:43.247Z,101575.44
2023-01-13T21:02:13.207Z,101564.06
2023-01-13T21:04:40.890Z,101558.75
2023-01-13T21:07:08.371Z,101561.13
2023-01-13T21:09:36.531Z,101560.00
2023-01-13T21:12:23.347Z,101564.34
2023-01-13T21:15:09.410Z,101563.16
2023-01-13T21:17:56.040Z,101562.81
2023-01-13T21:20:23.403Z,101548.16
2023-01-13T21:22:51.082Z,101547.66
2023-01-13T21:25:19.088Z,101547.47
2023-01-13T21:27:46.588Z,101552.28
2023-01-13T21:30:15.791Z,101550.28
2023-01-13T21:32:44.467Z,101547.66
2023-01-13T21:35:12.948Z,101546.16
2023-01-13T21:37:41.938Z,101537.53
2023-01-13T21:40:12.132Z,101537.94
2023-01-13T21:42:58.202Z,101526.50
2023-01-13T21:45:44.114Z,101532.31
2023-01-13T21:48:11.536Z,101537.91
2023-01-13T21:50:39.481Z,101530.09
2023-01-13T21:53:07.971Z,101532.25
2023-01-13T21:55:36.857Z,101526.38
2023-01-13T21:58:14.308Z,101519.00
2023-01-13T22:00:43.294Z,101515.53
2023-01-13T22:03:14.581Z,101510.16
2023-01-13T22:05:42.160Z,101502.81
2023-01-13T22:08:12.389Z,101504.22
2023-01-13T22:10:57.292Z,101496.22
2023-01-13T22:13:44.148Z,101500.38
2023-01-13T22:16:12.030Z,101499.03
2023-01-13T22:18:39.363Z,101503.84
2023-01-13T22:21:06.965Z,101506.97
2023-01-13T22:23:34.254Z,101507.06
2023-01-13T22:26:05.859Z,101511.56
2023-01-13T22:28:43.328Z,101508.69
2023-01-13T22:31:15.266Z,101492.84
2023-01-13T22:33:43.667Z,101495.34
2023-01-13T22:36:10.892Z,101493.88
2023-01-13T22:38:38.199Z,101507.22
2023-01-13T22:41:07.451Z,101494.88
2023-01-13T22:43:35.445Z,101495.81
2023-01-13T22:46:07.987Z,101495.72
2023-01-13T22:48:35.694Z,101490.88
2023-01-13T22:51:07.401Z,101488.97
2023-01-13T22:53:35.818Z,101495.72
2023-01-13T22:56:03.870Z,101501.59
2023-01-13T22:58:31.289Z,101507.47
2023-01-13T23:01:08.972Z,101511.88
2023-01-13T23:03:36.635Z,101515.88
2023-01-13T23:06:04.851Z,101506.59
2023-01-13T23:08:35.627Z,101499.56
2023-01-13T23:11:04.702Z,101490.09
2023-01-13T23:13:32.345Z,101488.13
2023-01-13T23:16:06.626Z,101489.06
2023-01-13T23:18:34.036Z,101489.59
2023-01-13T23:21:06.995Z,101486.06
2023-01-13T23:23:34.593Z,101477.19
2023-01-13T23:26:02.505Z,101478.13
2023-01-13T23:28:30.431Z,101479.59
2023-01-13T23:30:57.805Z,101474.31
2023-01-13T23:33:25.592Z,101470.69
2023-01-13T23:36:00.832Z,101462.66
2023-01-13T23:38:28.788Z,101460.72
2023-01-13T23:40:56.325Z,101457.28
2023-01-13T23:43:23.673Z,101455.38
2023-01-13T23:45:51.100Z,101437.16
2023-01-13T23:48:18.811Z,101432.81
2023-01-13T23:50:57.883Z,101424.03
2023-01-13T23:53:31.022Z,101426.13
2023-01-13T23:55:58.688Z,101413.31
2023-01-13T23:58:26.145Z,101401.59
